Time;durP1;ratioP1;P1;durP2;ratioP2;P2;SDS_P1;SDS_P2;PMS_P1;PMS_P2;Temp;Humidity;BMP_temperature;BMP_pressure;BME280_temperature;BME280_humidity;BME280_pressure;Samples;Min_cycle;Max_cycle;Signal;HPM_P1;HPM_P2
2022/03/07 00:01:25;;;;;;;8.97;5.83;;;;;;;1.56;70.76;102198.28;5009974;28;20711;-57
2022/03/07 00:03:51;;;;;;;6.13;4.77;;;;;;;1.59;69.87;102202.78;5001815;28;20330;-57
2022/03/07 00:06:17;;;;;;;7.07;4.80;;;;;;;1.55;70.08;102203.41;5003633;28;20251;-56
2022/03/07 00:08:44;;;;;;;6.23;4.80;;;;;;;1.56;70.39;102203.47;5008682;28;20239;-56
2022/03/07 00:11:11;;;;;;;4.90;4.50;;;;;;;1.59;70.35;102202.78;5007877;28;20237;-57
2022/03/07 00:13:38;;;;;;;4.80;4.30;;;;;;;1.60;70.04;102204.56;5006709;28;20318;-57
2022/03/07 00:16:05;;;;;;;4.77;4.33;;;;;;;1.61;70.37;102198.56;5005031;28;20248;-57
2022/03/07 00:18:31;;;;;;;5.13;4.63;;;;;;;1.62;69.96;102197.78;5008994;28;20294;-57
2022/03/07 00:20:58;;;;;;;5.17;4.53;;;;;;;1.65;70.61;102201.44;5005692;28;20249;-57
2022/03/07 00:23:24;;;;;;;5.97;4.53;;;;;;;1.67;70.21;102202.41;5008023;28;20243;-56
2022/03/07 00:25:50;;;;;;;6.40;5.80;;;;;;;1.71;70.49;102194.81;5008139;28;20255;-57
2022/03/07 00:28:18;;;;;;;5.30;4.80;;;;;;;1.65;70.21;102192.75;5006696;28;20267;-57
2022/03/07 00:30:45;;;;;;;7.00;5.10;;;;;;;1.61;70.22;102199.44;5006793;28;20248;-56
2022/03/07 00:33:11;;;;;;;4.57;4.17;;;;;;;1.58;71.01;102191.53;5009979;28;20286;-56
2022/03/07 00:35:38;;;;;;;6.80;5.20;;;;;;;1.63;71.17;102191.78;5008518;28;20232;-57
2022/03/07 00:38:04;;;;;;;6.77;4.83;;;;;;;1.62;70.77;102192.59;5007412;28;20244;-56
2022/03/07 00:40:31;;;;;;;5.57;4.63;;;;;;;1.57;70.93;102189.72;5007921;28;20240;-56
2022/03/07 00:42:57;;;;;;;5.30;4.80;;;;;;;1.55;71.60;102195.63;5009161;28;20245;-55
2022/03/07 00:45:25;;;;;;;5.80;4.80;;;;;;;1.56;71.64;102198.28;5005717;28;20275;-57
2022/03/07 00:47:51;;;;;;;7.13;5.13;;;;;;;1.53;71.56;102197.22;5006179;28;20247;-57
2022/03/07 00:50:18;;;;;;;6.20;5.07;;;;;;;1.48;72.28;102204.72;5003390;28;20266;-58
2022/03/07 00:52:44;;;;;;;6.83;5.40;;;;;;;1.48;71.84;102201.25;5009443;28;20239;-57
2022/03/07 00:55:10;;;;;;;5.17;4.67;;;;;;;1.47;72.69;102195.16;5005409;28;20231;-57
2022/03/07 00:57:37;;;;;;;5.30;4.90;;;;;;;1.43;72.94;102199.25;5008471;28;20264;-56
2022/03/07 01:00:04;;;;;;;5.50;4.90;;;;;;;1.43;72.67;102198.38;5005076;28;20263;-57
2022/03/07 01:02:32;;;;;;;6.13;5.37;;;;;;;1.41;73.16;102194.81;5006912;28;21082;-57
2022/03/07 01:04:59;;;;;;;7.20;5.23;;;;;;;1.33;73.54;102194.34;5008062;28;20258;-57
2022/03/07 01:07:25;;;;;;;4.80;4.40;;;;;;;1.28;73.48;102200.06;5007835;28;20251;-57
2022/03/07 01:09:51;;;;;;;8.27;5.17;;;;;;;1.21;73.84;102203.97;5008446;28;20235;-58
2022/03/07 01:12:18;;;;;;;5.67;5.10;;;;;;;1.22;73.64;102205.72;5004623;28;20233;-60
2022/03/07 01:14:44;;;;;;;5.90;4.87;;;;;;;1.18;73.85;102198.59;5007782;28;20309;-57
2022/03/07 01:17:11;;;;;;;9.80;5.43;;;;;;;1.13;74.25;102202.59;5004652;28;20240;-57
2022/03/07 01:19:38;;;;;;;5.93;5.33;;;;;;;1.12;73.85;102200.81;5002380;28;20256;-57
2022/03/07 01:22:05;;;;;;;5.93;4.37;;;;;;;1.11;74.02;102202.50;5001323;28;20815;-56
2022/03/07 01:24:31;;;;;;;5.40;4.90;;;;;;;1.11;73.99;102196.44;5006018;28;20334;-57
2022/03/07 01:26:58;;;;;;;8.00;5.10;;;;;;;1.13;73.51;102195.75;5008292;28;20271;-56
2022/03/07 01:29:24;;;;;;;5.23;4.53;;;;;;;1.12;73.86;102203.38;5009148;28;20308;-56
2022/03/07 01:31:51;;;;;;;7.57;5.53;;;;;;;1.12;73.64;102203.38;5008285;28;20236;-57
2022/03/07 01:34:17;;;;;;;5.20;4.73;;;;;;;1.08;74.00;102197.13;5004410;28;20724;-57
2022/03/07 01:36:45;;;;;;;7.37;4.93;;;;;;;0.99;73.75;102196.59;5005154;28;20235;-56
2022/03/07 01:39:11;;;;;;;6.00;5.10;;;;;;;0.96;74.28;102196.41;5005450;28;20267;-56
2022/03/07 01:41:37;;;;;;;6.13;4.97;;;;;;;0.96;74.54;102196.41;5008259;28;20560;-56
2022/03/07 01:44:04;;;;;;;8.23;5.30;;;;;;;0.92;74.62;102190.16;5007452;28;20232;-58
2022/03/07 01:46:31;;;;;;;6.77;5.57;;;;;;;0.86;74.34;102186.28;5011075;28;21352;-58
2022/03/07 01:48:58;;;;;;;5.50;4.87;;;;;;;0.83;75.18;102184.41;5009754;28;20409;-56
2022/03/07 01:51:24;;;;;;;5.57;4.90;;;;;;;0.82;75.51;102187.78;5010270;28;20304;-57
2022/03/07 01:53:52;;;;;;;5.47;4.83;;;;;;;0.88;75.57;102182.13;5011094;28;20282;-57
2022/03/07 01:56:18;;;;;;;6.17;4.90;;;;;;;0.93;74.98;102181.59;5005726;28;20255;-56
2022/03/07 01:58:45;;;;;;;7.57;5.40;;;;;;;0.99;75.16;102188.84;5005574;28;20276;-55
2022/03/07 02:01:11;;;;;;;6.43;4.57;;;;;;;0.99;75.36;102180.19;5004999;28;20229;-56
2022/03/07 02:03:37;;;;;;;6.43;4.97;;;;;;;1.06;75.03;102187.53;5002593;28;20233;-56
2022/03/07 02:06:04;;;;;;;9.03;5.83;;;;;;;0.95;74.81;102177.41;5006855;28;20264;-57
2022/03/07 02:08:31;;;;;;;10.57;5.67;;;;;;;0.88;75.21;102182.13;5007597;28;20246;-57
2022/03/07 02:10:59;;;;;;;7.47;5.53;;;;;;;0.85;75.77;102171.59;5006071;28;20298;-57
2022/03/07 02:13:25;;;;;;;7.17;6.13;;;;;;;0.88;75.82;102175.25;5007684;28;20297;-57
2022/03/07 02:15:55;;;;;;;9.60;5.60;;;;;;;0.81;75.98;102175.69;5007075;28;20617;-57
2022/03/07 02:18:22;;;;;;;5.73;5.17;;;;;;;0.81;76.19;102170.50;5005498;28;20298;-57
2022/03/07 02:20:52;;;;;;;6.00;4.90;;;;;;;0.82;76.40;102169.69;5006312;28;20604;-57
2022/03/07 02:23:19;;;;;;;6.77;6.17;;;;;;;0.79;76.65;102169.50;5006914;28;22141;-58
2022/03/07 02:25:47;;;;;;;6.40;5.80;;;;;;;0.69;76.73;102175.78;5003292;28;20322;-58
2022/03/07 02:28:15;;;;;;;6.60;6.10;;;;;;;0.63;77.20;102169.34;5009229;28;20236;-58
2022/03/07 02:30:47;;;;;;;5.77;5.20;;;;;;;0.65;77.56;102172.94;5006591;28;20228;-57
2022/03/07 02:33:14;;;;;;;5.93;5.43;;;;;;;0.55;77.66;102165.41;5006318;28;20256;-59
2022/03/07 02:35:40;;;;;;;8.00;5.50;;;;;;;0.68;77.55;102165.38;5007184;28;20251;-56
2022/03/07 02:38:12;;;;;;;6.63;6.00;;;;;;;0.69;77.23;102159.41;5007415;28;20316;-56
2022/03/07 02:40:40;;;;;;;5.40;4.90;;;;;;;0.66;77.15;102164.38;5006648;28;20734;-58
2022/03/07 02:43:06;;;;;;;7.10;6.03;;;;;;;0.63;77.36;102166.75;5007100;28;20255;-59
2022/03/07 02:45:33;;;;;;;6.07;5.50;;;;;;;0.58;77.39;102170.75;5008538;28;20650;-59
2022/03/07 02:47:59;;;;;;;5.40;4.90;;;;;;;0.58;77.94;102165.59;5007390;28;20249;-58
2022/03/07 02:50:25;;;;;;;8.47;7.03;;;;;;;0.53;78.25;102161.81;5009855;28;20323;-58
2022/03/07 02:52:51;;;;;;;6.23;5.60;;;;;;;0.46;78.11;102158.88;5011577;28;20271;-57
2022/03/07 02:55:18;;;;;;;5.80;5.13;;;;;;;0.44;78.36;102157.88;5011762;28;20339;-58
2022/03/07 02:57:46;;;;;;;7.10;5.57;;;;;;;0.43;78.54;102150.03;5011567;28;20227;-58
2022/03/07 03:00:13;;;;;;;9.00;5.50;;;;;;;0.39;78.56;102148.94;5009733;28;20768;-58
2022/03/07 03:02:39;;;;;;;6.07;5.33;;;;;;;0.40;78.65;102161.06;5011129;28;20233;-59
2022/03/07 03:05:06;;;;;;;8.60;5.83;;;;;;;0.42;78.59;102166.31;5011362;28;20621;-58
2022/03/07 03:07:32;;;;;;;6.33;4.77;;;;;;;0.42;78.69;102159.47;5009712;28;20239;-58
2022/03/07 03:10:00;;;;;;;5.60;5.10;;;;;;;0.41;78.65;102154.19;5009942;28;20266;-58
2022/03/07 03:12:26;;;;;;;8.10;5.83;;;;;;;0.33;79.02;102151.13;5010197;28;20759;-59
2022/03/07 03:14:55;;;;;;;5.93;5.07;;;;;;;0.37;79.29;102147.94;5010147;28;20243;-56
2022/03/07 03:17:21;;;;;;;6.67;5.97;;;;;;;0.36;79.41;102138.41;5010200;28;20229;-58
2022/03/07 03:19:48;;;;;;;8.23;5.73;;;;;;;0.37;79.50;102145.38;5010315;28;20771;-57
2022/03/07 03:22:14;;;;;;;5.63;5.13;;;;;;;0.34;79.50;102139.13;5010053;28;20298;-59
2022/03/07 03:24:41;;;;;;;6.83;5.90;;;;;;;0.32;79.82;102141.63;5010724;28;20319;-59
2022/03/07 03:27:07;;;;;;;6.33;5.63;;;;;;;0.26;80.00;102136.06;5010966;28;20244;-59
2022/03/07 03:29:34;;;;;;;5.93;5.37;;;;;;;0.26;80.23;102140.31;5010272;28;20728;-58
2022/03/07 03:32:01;;;;;;;6.37;5.77;;;;;;;0.22;80.46;102129.81;5010377;28;20264;-58
2022/03/07 03:34:28;;;;;;;7.10;5.67;;;;;;;0.24;80.59;102137.63;5010050;28;20302;-59
2022/03/07 03:36:54;;;;;;;9.30;5.73;;;;;;;0.22;80.72;102139.25;5011219;28;20238;-56
2022/03/07 03:39:20;;;;;;;9.10;6.37;;;;;;;0.24;81.06;102138.53;5009277;28;20968;-58
2022/03/07 03:41:46;;;;;;;8.93;5.50;;;;;;;0.22;80.89;102140.13;5008356;28;20720;-59
2022/03/07 03:44:13;;;;;;;8.03;6.30;;;;;;;0.20;81.07;102140.81;5010065;28;20589;-58
2022/03/07 03:46:39;;;;;;;9.00;4.70;;;;;;;0.20;81.32;102144.28;5010610;28;20782;-59
2022/03/07 03:49:07;;;;;;;6.40;5.67;;;;;;;0.35;81.04;102146.97;5009272;28;20404;-57
2022/03/07 03:51:35;;;;;;;7.23;5.67;;;;;;;0.51;80.09;102147.94;5009422;28;20292;-57
2022/03/07 03:54:01;;;;;;;6.90;6.20;;;;;;;0.49;80.48;102150.41;5010808;28;20304;-57
2022/03/07 03:56:28;;;;;;;7.43;5.90;;;;;;;0.44;80.50;102147.53;5005084;28;20240;-57
2022/03/07 03:58:54;;;;;;;6.87;6.00;;;;;;;0.40;80.70;102147.25;5010195;28;20263;-56
2022/03/07 04:01:20;;;;;;;6.90;6.27;;;;;;;0.33;80.91;102148.56;5009605;28;20239;-57
2022/03/07 04:03:47;;;;;;;6.53;5.83;;;;;;;0.29;81.59;102146.59;5010357;28;20231;-59
2022/03/07 04:06:14;;;;;;;7.50;5.93;;;;;;;0.25;82.19;102142.03;5010963;28;20892;-57
2022/03/07 04:08:41;;;;;;;6.67;6.07;;;;;;;0.18;82.30;102138.16;5010370;28;20228;-57
2022/03/07 04:11:07;;;;;;;7.13;6.40;;;;;;;0.14;82.81;102145.59;5007453;28;20704;-58
2022/03/07 04:13:34;;;;;;;6.67;6.07;;;;;;;0.19;83.36;102139.03;5010857;28;20291;-58
2022/03/07 04:16:00;;;;;;;9.63;6.23;;;;;;;0.27;83.09;102140.41;5015004;28;20244;-58
2022/03/07 04:18:26;;;;;;;6.67;6.07;;;;;;;0.32;82.89;102149.38;5011802;28;20630;-58
2022/03/07 04:20:53;;;;;;;7.77;6.03;;;;;;;0.33;82.83;102147.66;5015864;28;20240;-58
2022/03/07 04:23:22;;;;;;;6.40;5.83;;;;;;;0.30;82.69;102148.34;5009785;28;20241;-58
2022/03/07 04:25:48;;;;;;;7.27;5.97;;;;;;;0.23;82.96;102149.66;5009911;28;20247;-58
2022/03/07 04:28:15;;;;;;;8.83;6.77;;;;;;;0.19;83.44;102149.38;5006937;28;20236;-58
2022/03/07 04:30:41;;;;;;;7.20;6.50;;;;;;;0.31;83.41;102150.13;5009017;28;20266;-58
2022/03/07 04:33:08;;;;;;;6.63;6.03;;;;;;;0.23;83.29;102161.69;5009084;28;20975;-58
2022/03/07 04:35:35;;;;;;;6.43;5.93;;;;;;;0.15;84.20;102157.72;5009338;28;20303;-57
2022/03/07 04:38:01;;;;;;;9.83;7.37;;;;;;;0.04;84.79;102159.63;5009571;28;20243;-57
2022/03/07 04:40:29;;;;;;;10.80;6.60;;;;;;;0.08;85.40;102163.28;5006333;28;20284;-57
2022/03/07 04:42:56;;;;;;;7.40;6.70;;;;;;;0.06;85.45;102159.72;5009137;28;20285;-58
2022/03/07 04:45:22;;;;;;;6.90;6.20;;;;;;;0.09;85.76;102163.38;5007729;28;25775;-57
2022/03/07 04:47:49;;;;;;;6.70;5.90;;;;;;;0.11;85.77;102161.81;5008281;28;20245;-57
2022/03/07 04:50:15;;;;;;;8.03;7.00;;;;;;;0.09;85.74;102155.63;5006717;28;20268;-57
2022/03/07 04:52:42;;;;;;;9.30;6.60;;;;;;;0.10;85.58;102161.69;5009133;28;20306;-58
2022/03/07 04:55:10;;;;;;;7.27;6.10;;;;;;;0.08;85.63;102160.72;5008216;28;20710;-57
2022/03/07 04:57:38;;;;;;;7.40;6.80;;;;;;;0.19;85.67;102159.69;5005772;28;20242;-57
2022/03/07 05:00:05;;;;;;;7.67;6.87;;;;;;;0.14;85.62;102171.41;5007974;28;20745;-56
2022/03/07 05:02:32;;;;;;;13.73;7.50;;;;;;;0.25;85.61;102165.28;5008099;28;20240;-57
2022/03/07 05:04:58;;;;;;;6.80;6.10;;;;;;;0.16;85.62;102170.72;5006108;28;20251;-58
2022/03/07 05:07:24;;;;;;;6.77;6.10;;;;;;;0.18;85.92;102163.97;5008045;28;20310;-58
2022/03/07 05:09:51;;;;;;;7.47;6.77;;;;;;;0.23;86.00;102166.84;5006288;28;20237;-58
2022/03/07 05:12:17;;;;;;;7.30;6.63;;;;;;;0.26;86.25;102174.78;5008442;28;20294;-57
2022/03/07 05:14:45;;;;;;;11.03;7.13;;;;;;;0.26;86.20;102172.22;5008786;28;20653;-58
2022/03/07 05:17:11;;;;;;;7.03;6.43;;;;;;;0.31;86.50;102165.63;5009341;28;20225;-58
2022/03/07 05:19:37;;;;;;;7.97;7.17;;;;;;;0.28;86.68;102169.72;5007551;28;20249;-57
2022/03/07 05:22:04;;;;;;;11.53;7.13;;;;;;;0.28;87.26;102178.38;5009116;28;20265;-59
2022/03/07 05:24:30;;;;;;;8.47;7.33;;;;;;;0.35;87.63;102172.81;5008812;28;20239;-56
2022/03/07 05:26:57;;;;;;;9.80;7.20;;;;;;;0.36;87.87;102179.75;5007500;28;20287;-58
2022/03/07 05:29:23;;;;;;;8.87;8.00;;;;;;;0.34;88.14;102181.31;5004348;28;20264;-58
2022/03/07 05:31:51;;;;;;;10.77;7.03;;;;;;;0.32;88.23;102182.94;5007379;28;20736;-57
2022/03/07 05:34:17;;;;;;;9.40;7.67;;;;;;;0.45;87.94;102184.59;5006755;28;20232;-58
2022/03/07 05:36:43;;;;;;;9.63;7.87;;;;;;;0.40;88.01;102186.91;5006660;28;20270;-57
2022/03/07 05:39:10;;;;;;;12.00;8.90;;;;;;;0.40;87.67;102191.19;5006514;28;20237;-57
2022/03/07 05:41:37;;;;;;;9.93;7.47;;;;;;;0.37;88.17;102181.53;5008284;28;20237;-57
2022/03/07 05:44:04;;;;;;;8.00;7.23;;;;;;;0.37;88.03;102186.69;5006913;28;20240;-59
2022/03/07 05:46:30;;;;;;;8.63;7.47;;;;;;;0.36;88.23;102187.50;5008274;28;20237;-58
2022/03/07 05:48:58;;;;;;;8.17;7.37;;;;;;;0.42;87.94;102184.41;5007288;28;20279;-58
2022/03/07 05:51:25;;;;;;;14.47;7.83;;;;;;;0.50;87.50;102184.91;5007550;28;20245;-58
2022/03/07 05:53:51;;;;;;;13.20;8.33;;;;;;;0.35;87.47;102180.56;5007166;28;20255;-57
2022/03/07 05:56:18;;;;;;;10.57;7.20;;;;;;;0.30;88.41;102181.94;5007574;28;20780;-58
2022/03/07 05:58:46;;;;;;;8.23;6.80;;;;;;;0.34;88.64;102168.41;5005377;28;20273;-57
2022/03/07 06:01:13;;;;;;;8.90;7.87;;;;;;;0.29;88.85;102162.06;5005071;28;20223;-57
2022/03/07 06:03:39;;;;;;;8.60;7.70;;;;;;;0.27;89.08;102174.00;5008717;28;20301;-58
2022/03/07 06:06:07;;;;;;;8.47;7.57;;;;;;;0.27;89.09;102168.81;5003441;28;20246;-58
2022/03/07 06:08:33;;;;;;;10.13;7.17;;;;;;;0.25;89.66;102173.00;5007102;28;20269;-58
2022/03/07 06:11:00;;;;;;;8.37;7.50;;;;;;;0.25;89.77;102178.19;5008060;28;20805;-58
2022/03/07 06:13:26;;;;;;;10.07;8.20;;;;;;;0.26;89.76;102176.50;5008004;28;20240;-58
2022/03/07 06:15:52;;;;;;;9.10;8.07;;;;;;;0.26;90.10;102182.53;5006873;28;20329;-58
2022/03/07 06:18:19;;;;;;;13.33;8.20;;;;;;;0.24;90.31;102184.13;5005966;28;20267;-58
2022/03/07 06:20:45;;;;;;;11.13;7.33;;;;;;;0.23;90.39;102182.34;5006672;28;20295;-57
2022/03/07 06:23:13;;;;;;;8.90;7.87;;;;;;;0.20;91.03;102182.13;5006004;28;20232;-58
2022/03/07 06:25:39;;;;;;;9.27;8.40;;;;;;;0.28;90.86;102180.97;5007564;28;20240;-58
2022/03/07 06:28:05;;;;;;;13.53;8.10;;;;;;;0.24;91.24;102182.44;5006289;28;20255;-57
2022/03/07 06:30:32;;;;;;;9.73;8.27;;;;;;;0.20;91.50;102185.63;5007449;28;20700;-58
2022/03/07 06:32:58;;;;;;;11.70;7.77;;;;;;;0.24;91.88;102186.69;5006103;28;20230;-58
2022/03/07 06:35:25;;;;;;;9.80;7.20;;;;;;;0.26;91.88;102195.47;5006597;28;20261;-58
2022/03/07 06:37:52;;;;;;;10.13;8.50;;;;;;;0.37;91.17;102202.19;5006255;28;20655;-57
2022/03/07 06:40:21;;;;;;;10.63;8.40;;;;;;;0.46;91.14;102207.97;5008156;28;20235;-58
2022/03/07 06:42:48;;;;;;;10.57;8.90;;;;;;;0.57;90.60;102205.16;5009103;28;20248;-58
2022/03/07 06:45:16;;;;;;;9.10;7.67;;;;;;;0.63;90.69;102195.19;5009178;28;20728;-58
2022/03/07 06:47:43;;;;;;;11.67;8.97;;;;;;;0.60;90.66;102206.25;5005062;28;20338;-57
2022/03/07 06:50:10;;;;;;;10.80;8.27;;;;;;;0.79;90.78;102204.81;5006518;28;20236;-58
2022/03/07 06:52:37;;;;;;;10.37;9.13;;;;;;;0.76;91.05;102195.16;5006323;28;20237;-58
2022/03/07 06:55:04;;;;;;;11.13;7.63;;;;;;;0.76;90.46;102200.34;5006711;28;20315;-57
2022/03/07 06:57:32;;;;;;;10.73;8.67;;;;;;;0.70;90.72;102200.88;5007601;28;20255;-58
2022/03/07 06:59:58;;;;;;;13.90;8.57;;;;;;;0.77;90.37;102196.06;5004726;28;20247;-58
2022/03/07 07:02:24;;;;;;;10.87;8.67;;;;;;;0.88;90.41;102198.53;5003867;28;20267;-57
2022/03/07 07:04:51;;;;;;;9.77;8.77;;;;;;;0.82;90.75;102195.56;5005809;28;20663;-58
2022/03/07 07:07:17;;;;;;;8.33;7.53;;;;;;;0.93;90.54;102196.22;5006028;28;20290;-57
2022/03/07 07:09:44;;;;;;;11.10;9.87;;;;;;;0.97;90.52;102195.59;5007440;28;20247;-55
2022/03/07 07:12:10;;;;;;;10.63;9.17;;;;;;;0.97;90.32;102202.47;5006617;28;20314;-54
2022/03/07 07:14:38;;;;;;;9.30;8.40;;;;;;;0.89;90.36;102195.13;5004043;28;20250;-55
2022/03/07 07:17:04;;;;;;;11.27;8.97;;;;;;;1.07;91.02;102202.22;5005122;28;20247;-54
2022/03/07 07:19:31;;;;;;;10.43;8.30;;;;;;;1.20;90.30;102202.19;5003661;28;20264;-56
2022/03/07 07:21:57;;;;;;;10.77;8.70;;;;;;;1.17;90.43;102196.81;5006964;28;20248;-57
2022/03/07 07:24:23;;;;;;;12.10;8.57;;;;;;;1.18;90.88;102199.47;5005688;28;20274;-57
2022/03/07 07:26:50;;;;;;;9.73;8.37;;;;;;;1.22;90.55;102200.56;5005730;28;20229;-56
2022/03/07 07:29:16;;;;;;;12.37;9.10;;;;;;;1.21;91.02;102191.03;5005580;28;20301;-57
2022/03/07 07:31:44;;;;;;;12.30;8.47;;;;;;;1.30;90.63;102194.19;5003457;28;20261;-56
2022/03/07 07:34:10;;;;;;;17.33;9.83;;;;;;;1.34;90.36;102201.31;5008459;28;20263;-57
2022/03/07 07:36:37;;;;;;;11.83;8.80;;;;;;;1.35;90.23;102203.09;5011956;28;20263;-57
2022/03/07 07:39:03;;;;;;;13.87;8.90;;;;;;;1.51;89.93;102202.31;5011341;28;20809;-58
2022/03/07 07:41:30;;;;;;;11.40;9.10;;;;;;;1.48;89.93;102209.00;5011612;28;20253;-57
2022/03/07 07:43:56;;;;;;;10.13;8.17;;;;;;;1.59;90.53;102210.53;5012386;28;20260;-56
2022/03/07 07:46:23;;;;;;;14.70;10.07;;;;;;;1.65;90.16;102210.88;5013063;28;20298;-57
2022/03/07 07:48:50;;;;;;;13.87;9.80;;;;;;;1.84;89.53;102203.41;5016761;28;20239;-57
2022/03/07 07:51:17;;;;;;;10.60;9.33;;;;;;;1.90;88.75;102201.16;5016681;28;20248;-57
2022/03/07 07:53:43;;;;;;;10.73;9.57;;;;;;;1.92;88.86;102207.31;5018083;28;20282;-57
2022/03/07 07:56:09;;;;;;;12.00;9.87;;;;;;;2.06;88.67;102202.03;5015651;28;20248;-58
2022/03/07 07:58:36;;;;;;;8.57;7.77;;;;;;;2.11;88.79;102205.78;5015942;28;20240;-56
2022/03/07 08:01:02;;;;;;;13.27;9.10;;;;;;;2.27;88.44;102203.25;5016848;28;20271;-58
2022/03/07 08:03:29;;;;;;;9.73;8.47;;;;;;;2.27;88.60;102208.44;5018338;28;20224;-57
2022/03/07 08:05:57;;;;;;;10.87;9.43;;;;;;;2.41;88.55;102205.72;5017901;28;20262;-58
2022/03/07 08:08:23;;;;;;;9.70;7.93;;;;;;;2.49;88.33;102207.03;5016482;28;20316;-57
2022/03/07 08:10:49;;;;;;;16.40;9.13;;;;;;;2.62;87.30;102209.50;5016431;28;20232;-58
2022/03/07 08:13:16;;;;;;;10.37;8.93;;;;;;;2.84;86.37;102209.88;5012266;28;20264;-57
2022/03/07 08:15:42;;;;;;;10.97;8.80;;;;;;;2.98;85.69;102209.69;5016447;28;20241;-58
2022/03/07 08:18:09;;;;;;;11.30;8.20;;;;;;;3.13;85.19;102218.31;5015277;28;20697;-59
2022/03/07 08:20:35;;;;;;;9.47;8.50;;;;;;;3.18;84.74;102215.97;5014284;28;20243;-58
2022/03/07 08:23:04;;;;;;;13.17;8.90;;;;;;;3.34;83.85;102208.19;5014661;28;21113;-59
2022/03/07 08:25:31;;;;;;;12.77;8.90;;;;;;;3.39;83.88;102206.69;5014418;28;20660;-59
2022/03/07 08:27:57;;;;;;;12.80;8.40;;;;;;;3.56;82.88;102210.16;5013414;28;20290;-57
2022/03/07 08:30:25;;;;;;;11.13;8.23;;;;;;;3.61;82.32;102202.59;5010611;28;20295;-60
2022/03/07 08:32:52;;;;;;;11.43;8.13;;;;;;;3.87;80.65;102202.22;5017126;28;20252;-58
2022/03/07 08:35:19;;;;;;;11.30;9.10;;;;;;;3.88;81.29;102203.09;5017495;28;20480;-58
2022/03/07 08:37:47;;;;;;;13.70;8.13;;;;;;;3.92;80.53;102194.66;5017190;28;20241;-57
2022/03/07 08:40:17;;;;;;;8.43;7.63;;;;;;;4.04;79.91;102192.66;5014325;28;20270;-59
2022/03/07 08:42:44;;;;;;;10.17;7.97;;;;;;;4.15;78.57;102188.00;5015424;28;20318;-57
2022/03/07 08:45:12;;;;;;;10.73;7.83;;;;;;;4.18;78.40;102202.03;5013604;28;20229;-58
2022/03/07 08:47:39;;;;;;;11.67;7.00;;;;;;;4.30;77.10;102189.59;5017484;28;20245;-58
2022/03/07 08:50:08;;;;;;;11.63;6.93;;;;;;;4.40;75.89;102195.25;5016759;28;20233;-65
2022/03/07 08:52:35;;;;;;;9.17;7.03;;;;;;;4.39;75.37;102193.44;5011290;28;20234;-57
2022/03/07 08:55:02;;;;;;;9.63;6.53;;;;;;;4.33;74.87;102194.06;5011973;28;20233;-58
2022/03/07 08:57:29;;;;;;;7.77;6.37;;;;;;;4.35;73.77;102194.13;5011180;28;20475;-57
2022/03/07 08:59:56;;;;;;;7.70;6.93;;;;;;;4.47;74.38;102186.94;5011532;28;20272;-57
2022/03/07 09:02:22;;;;;;;7.17;6.50;;;;;;;4.63;73.60;102198.91;5010893;28;20243;-57
2022/03/07 09:04:48;;;;;;;11.33;7.47;;;;;;;4.75;73.00;102192.59;5011932;28;20656;-57
2022/03/07 09:07:15;;;;;;;9.97;7.37;;;;;;;4.97;72.10;102194.44;5009556;28;20229;-57
2022/03/07 09:09:41;;;;;;;9.00;6.63;;;;;;;5.12;70.68;102191.63;5013705;28;20237;-56
2022/03/07 09:12:08;;;;;;;8.40;7.23;;;;;;;5.23;69.38;102197.34;5007567;28;20249;-55
2022/03/07 09:14:36;;;;;;;9.00;7.07;;;;;;;5.23;69.68;102190.44;5010350;28;20233;-56
2022/03/07 09:17:03;;;;;;;10.87;6.87;;;;;;;5.40;69.75;102195.47;5005257;28;20661;-56
2022/03/07 09:19:29;;;;;;;9.77;8.80;;;;;;;5.62;68.81;102190.38;5003254;28;20420;-56
2022/03/07 09:21:56;;;;;;;7.73;6.93;;;;;;;5.88;65.58;102187.97;5001364;28;20233;-56
2022/03/07 09:24:23;;;;;;;9.57;7.07;;;;;;;6.03;64.36;102196.44;5006893;28;20287;-58
2022/03/07 09:26:49;;;;;;;10.23;7.47;;;;;;;6.05;63.64;102202.63;5008217;28;20237;-55
2022/03/07 09:29:16;;;;;;;8.00;7.17;;;;;;;6.16;62.89;102201.31;5006371;28;20268;-58
2022/03/07 09:31:44;;;;;;;11.07;6.93;;;;;;;6.13;62.86;102202.91;5000622;28;20267;-57
2022/03/07 09:34:12;;;;;;;12.53;6.27;;;;;;;6.08;62.85;102207.06;5005041;28;20255;-56
2022/03/07 09:36:38;;;;;;;11.23;6.33;;;;;;;6.11;62.92;102209.81;5006734;28;20732;-57
2022/03/07 09:39:06;;;;;;;9.83;7.63;;;;;;;6.07;62.86;102211.41;5007243;28;20580;-56
2022/03/07 09:41:32;;;;;;;10.07;6.90;;;;;;;6.11;63.25;102202.88;5006463;28;20299;-57
2022/03/07 09:43:58;;;;;;;7.80;6.93;;;;;;;6.06;63.30;102209.59;5005484;28;20311;-56
2022/03/07 09:46:25;;;;;;;11.00;7.53;;;;;;;6.09;63.66;102209.72;5007188;28;20319;-56
2022/03/07 09:48:53;;;;;;;7.60;6.80;;;;;;;6.13;63.28;102206.41;5005771;28;20260;-59
2022/03/07 09:51:20;;;;;;;11.07;7.80;;;;;;;6.17;63.81;102208.31;5005099;28;20276;-59
2022/03/07 09:53:46;;;;;;;10.87;7.73;;;;;;;6.25;63.90;102210.34;5002400;28;20252;-57
2022/03/07 09:56:12;;;;;;;8.00;6.70;;;;;;;6.30;63.93;102206.22;5004379;28;20264;-56
2022/03/07 09:58:39;;;;;;;10.93;8.77;;;;;;;6.47;63.54;102207.78;5004074;28;20435;-57
2022/03/07 10:01:08;;;;;;;9.20;8.20;;;;;;;6.59;62.30;102215.19;5004484;28;20241;-56
2022/03/07 10:03:34;;;;;;;11.93;7.90;;;;;;;6.54;62.74;102212.41;5004288;28;20315;-56
2022/03/07 10:06:02;;;;;;;8.90;8.00;;;;;;;6.37;63.47;102219.56;5006842;28;20252;-58
2022/03/07 10:08:30;;;;;;;9.80;7.27;;;;;;;6.46;62.83;102211.22;5007287;28;20306;-56
2022/03/07 10:10:57;;;;;;;13.47;7.80;;;;;;;6.53;63.29;102213.25;5004812;28;20221;-57
2022/03/07 10:13:24;;;;;;;8.87;7.03;;;;;;;6.53;63.35;102215.84;5005615;28;20291;-58
2022/03/07 10:15:59;;;;;;;7.93;6.47;;;;;;;6.47;64.08;102217.34;5005273;28;20291;-57
2022/03/07 10:18:26;;;;;;;9.10;7.43;;;;;;;6.51;63.20;102212.28;5005872;28;20241;-56
2022/03/07 10:20:54;;;;;;;7.53;6.80;;;;;;;6.45;63.62;102209.44;5003486;28;20221;-59
2022/03/07 10:23:25;;;;;;;9.40;8.50;;;;;;;6.48;63.32;102211.28;5000635;28;20233;-55
2022/03/07 10:25:51;;;;;;;9.57;7.10;;;;;;;6.58;63.35;102216.91;4999788;28;20383;-58
2022/03/07 10:28:18;;;;;;;8.27;6.40;;;;;;;6.65;62.80;102216.31;5001196;28;20848;-56
2022/03/07 10:30:45;;;;;;;7.63;6.93;;;;;;;6.54;62.85;102217.63;5003710;28;20229;-57
2022/03/07 10:33:14;;;;;;;8.50;7.60;;;;;;;6.73;62.61;102221.81;5001556;28;20311;-56
2022/03/07 10:35:42;;;;;;;11.67;8.20;;;;;;;6.69;62.50;102214.72;5002691;28;20237;-57
2022/03/07 10:38:11;;;;;;;9.97;6.83;;;;;;;6.68;61.76;102207.72;5001139;28;20253;-57
2022/03/07 10:40:42;;;;;;;8.30;6.93;;;;;;;6.81;62.31;102215.22;5000411;28;20249;-57
2022/03/07 10:43:09;;;;;;;8.57;7.67;;;;;;;6.75;62.69;102214.97;5002927;28;20541;-57
2022/03/07 10:45:45;;;;;;;8.37;7.53;;;;;;;6.90;62.96;102209.44;4998235;28;20256;-57
2022/03/07 10:48:11;;;;;;;10.87;8.10;;;;;;;7.03;62.40;102209.06;4999944;28;20256;-57
2022/03/07 10:50:38;;;;;;;9.93;8.20;;;;;;;7.06;61.90;102214.41;5002232;28;20260;-58
2022/03/07 10:53:06;;;;;;;12.80;7.47;;;;;;;6.97;61.60;102205.31;4997871;28;20248;-57
2022/03/07 10:55:33;;;;;;;7.37;6.63;;;;;;;6.99;62.16;102209.78;5002117;28;20291;-57
2022/03/07 10:58:09;;;;;;;8.65;7.65;;;;;;;7.18;60.53;102216.56;5000950;28;20433;-57
2022/03/07 11:00:47;;;;;;;7.03;6.33;;;;;;;7.32;58.31;102204.00;4997820;28;20295;-58
2022/03/07 11:03:18;;;;;;;6.73;6.03;;;;;;;7.28;58.16;102197.78;5003197;28;20256;-58
2022/03/07 11:05:46;;;;;;;9.30;6.87;;;;;;;7.41;58.74;102204.34;5003814;28;20245;-58
2022/03/07 11:08:14;;;;;;;9.10;7.10;;;;;;;7.36;59.46;102198.94;5002771;28;20221;-57
2022/03/07 11:10:45;;;;;;;11.50;7.00;;;;;;;7.45;58.88;102200.13;5002697;28;20252;-58
2022/03/07 11:13:14;;;;;;;6.17;5.57;;;;;;;7.50;58.86;102194.19;5005512;28;20237;-58
2022/03/07 11:15:41;;;;;;;6.97;5.53;;;;;;;7.47;57.44;102199.31;5006786;28;20251;-57
2022/03/07 11:18:08;;;;;;;7.20;5.60;;;;;;;7.55;56.35;102187.44;5007017;28;20796;-58
2022/03/07 11:20:35;;;;;;;6.87;5.67;;;;;;;7.59;56.04;102194.53;5007148;28;20906;-57
2022/03/07 11:23:02;;;;;;;6.47;5.70;;;;;;;7.47;56.70;102196.69;5007311;28;20777;-56
2022/03/07 11:25:28;;;;;;;6.47;5.80;;;;;;;7.58;56.50;102187.53;5010603;28;20241;-58
2022/03/07 11:27:56;;;;;;;6.20;5.47;;;;;;;7.62;55.65;102192.03;5009789;28;20697;-60
2022/03/07 11:30:25;;;;;;;5.97;4.97;;;;;;;7.61;56.04;102203.28;5011653;28;20244;-58